createdAt,value
2022-12-15T00:04:21.944Z,98
2022-12-15T00:09:28.036Z,99.5
2022-12-15T00:14:34.142Z,99
2022-12-15T00:19:40.265Z,98.5
2022-12-15T00:24:46.348Z,98.5
2022-12-15T00:29:51.470Z,98.5
2022-12-15T00:34:57.580Z,99
2022-12-15T00:40:03.689Z,98
2022-12-15T00:45:09.782Z,98
2022-12-15T00:50:15.900Z,97
2022-12-15T00:55:21.984Z,97.5
2022-12-15T01:00:28.106Z,97.5
2022-12-15T01:05:33.222Z,97.5
2022-12-15T01:10:39.411Z,98
2022-12-15T01:15:45.440Z,99
2022-12-15T01:20:51.597Z,98.5
2022-12-15T01:25:57.724Z,98.5
2022-12-15T01:31:03.751Z,98.5
2022-12-15T01:36:09.924Z,98.5
2022-12-15T01:41:15.974Z,97.5
2022-12-15T01:46:22.061Z,97
2022-12-15T01:51:28.179Z,97
2022-12-15T01:56:34.276Z,97
2022-12-15T02:01:40.388Z,98
2022-12-15T02:06:46.477Z,98.5
2022-12-15T02:11:51.683Z,98
2022-12-15T02:16:57.715Z,97.5
2022-12-15T02:22:03.816Z,97.5
2022-12-15T02:27:09.920Z,97.5
2022-12-15T02:32:16.016Z,98.5
2022-12-15T02:37:22.137Z,99.5
2022-12-15T02:42:28.225Z,98.5
2022-12-15T02:47:34.387Z,97.5
2022-12-15T02:52:40.438Z,97
2022-12-15T02:57:46.600Z,98
2022-12-15T03:02:52.645Z,98.5
2022-12-15T03:07:58.760Z,98
2022-12-15T03:13:04.858Z,97.5
2022-12-15T03:18:10.006Z,96.5
2022-12-15T03:23:16.076Z,96.5
2022-12-15T03:28:22.173Z,96.5
2022-12-15T03:33:28.275Z,96.5
2022-12-15T03:38:34.394Z,97
2022-12-15T03:43:40.518Z,97
2022-12-15T03:48:46.591Z,97.5
2022-12-15T03:53:52.713Z,97.5
2022-12-15T03:58:58.804Z,97.5
2022-12-15T04:04:04.913Z,97
2022-12-15T04:09:11.027Z,98
2022-12-15T04:14:17.131Z,97.5
2022-12-15T04:19:23.219Z,98
2022-12-15T04:24:28.359Z,97.5
2022-12-15T04:29:34.461Z,99
2022-12-15T04:34:40.558Z,98
2022-12-15T04:39:46.680Z,99.5
2022-12-15T04:44:52.779Z,98.5
2022-12-15T04:49:58.871Z,97
2022-12-15T04:55:04.992Z,98.5
2022-12-15T05:00:11.085Z,98.5
2022-12-15T05:05:17.195Z,99.5
2022-12-15T05:10:23.299Z,98.5
2022-12-15T05:15:29.430Z,98
2022-12-15T05:20:35.544Z,98.5
2022-12-15T05:25:41.608Z,99.5
2022-12-15T05:30:46.720Z,99.5
2022-12-15T05:35:52.827Z,98
2022-12-15T05:40:58.930Z,98
2022-12-15T05:46:05.076Z,98
2022-12-15T05:51:11.148Z,98.5
2022-12-15T05:56:17.362Z,98
2022-12-15T06:01:23.422Z,98
2022-12-15T06:06:29.450Z,97.5
2022-12-15T06:11:35.660Z,97.5
2022-12-15T06:16:41.652Z,97.5
2022-12-15T06:21:47.797Z,97
2022-12-15T06:26:53.877Z,97.5
2022-12-15T06:32:00.110Z,98
2022-12-15T06:37:05.099Z,98
2022-12-15T06:42:11.198Z,99
2022-12-15T06:47:17.338Z,98.5
2022-12-15T06:52:23.409Z,99
2022-12-15T06:57:29.647Z,99
2022-12-15T07:02:35.625Z,98.5
2022-12-15T07:07:41.782Z,97
2022-12-15T07:12:47.841Z,97
2022-12-15T07:17:53.930Z,99.5
2022-12-15T07:23:00.082Z,99.5
2022-12-15T07:28:06.140Z,99.5
2022-12-15T07:33:12.247Z,99.5
2022-12-15T07:38:18.361Z,99.5
2022-12-15T07:43:23.624Z,99.5
2022-12-15T07:48:29.575Z,99.5
2022-12-15T07:53:35.689Z,99.5
2022-12-15T07:58:41.884Z,99
2022-12-15T08:03:48.029Z,99.5
2022-12-15T08:08:54.171Z,99.5
2022-12-15T08:14:00.097Z,99.5
2022-12-15T08:19:06.278Z,99
2022-12-15T08:24:12.441Z,99
2022-12-15T08:29:18.413Z,98.5
2022-12-15T08:34:24.625Z,98.5
2022-12-15T08:39:30.664Z,99.5
2022-12-15T08:44:36.812Z,99.5
2022-12-15T08:49:41.903Z,99.5
2022-12-15T08:54:47.941Z,99.5
2022-12-15T08:59:54.053Z,99.5
2022-12-15T09:05:00.230Z,99.5
2022-12-15T09:10:06.239Z,99.5
2022-12-15T09:15:12.383Z,99.5
2022-12-15T09:20:18.459Z,99.5
2022-12-15T09:25:24.544Z,99.5
2022-12-15T09:30:30.703Z,98.5
2022-12-15T09:35:36.783Z,97.5
2022-12-15T09:40:42.891Z,97
2022-12-15T09:45:48.973Z,97.5
2022-12-15T09:50:55.147Z,97
2022-12-15T09:56:00.207Z,96.5
2022-12-15T10:01:06.465Z,95.5
2022-12-15T10:06:12.562Z,96
2022-12-15T10:11:18.660Z,96.5
2022-12-15T10:16:24.765Z,95.5
2022-12-15T10:21:30.787Z,94
2022-12-15T10:26:37.014Z,94.5
2022-12-15T10:31:43.156Z,94
2022-12-15T10:36:49.153Z,91.5
2022-12-15T10:41:55.238Z,91.5
2022-12-15T10:47:01.449Z,91.5
2022-12-15T10:52:07.430Z,89.5
2022-12-15T10:57:13.558Z,90.5
2022-12-15T11:02:18.508Z,89.5
2022-12-15T11:07:24.748Z,88.5
2022-12-15T11:12:30.840Z,87
2022-12-15T11:17:36.985Z,88
2022-12-15T11:22:43.034Z,86
2022-12-15T11:27:48.984Z,85.5
2022-12-15T11:32:55.298Z,86.5
2022-12-15T11:38:01.320Z,85
2022-12-15T11:48:13.522Z,83.5
2022-12-15T11:53:19.546Z,84
2022-12-15T11:58:25.544Z,83.5
2022-12-15T12:03:31.793Z,83
2022-12-15T12:08:36.892Z,83
2022-12-15T12:13:42.874Z,82
2022-12-15T12:18:49.142Z,83
2022-12-15T12:23:55.251Z,82
2022-12-15T12:29:01.344Z,82.5
2022-12-15T12:34:07.436Z,81.5
2022-12-15T12:39:13.485Z,82.5
2022-12-15T12:44:19.680Z,83
2022-12-15T12:49:25.809Z,82.5
2022-12-15T12:54:31.856Z,81.5
2022-12-15T12:59:37.750Z,81
2022-12-15T13:04:44.029Z,81
2022-12-15T13:09:50.126Z,81
2022-12-15T13:14:55.254Z,80.5
2022-12-15T13:20:01.365Z,80.5
2022-12-15T13:25:07.456Z,82
2022-12-15T13:30:13.368Z,82.5
2022-12-15T13:35:19.620Z,82.5
2022-12-15T13:40:25.853Z,82.5
2022-12-15T13:45:31.702Z,82.5
2022-12-15T13:50:38.002Z,80.5
2022-12-15T13:55:44.024Z,72.5
2022-12-15T14:00:50.144Z,70
2022-12-15T14:05:56.274Z,73.5
2022-12-15T14:11:02.336Z,75.5
2022-12-15T14:16:08.494Z,78.5
2022-12-15T14:21:13.556Z,80.5
2022-12-15T14:26:19.636Z,83.5
2022-12-15T14:31:25.717Z,84
2022-12-15T14:36:31.851Z,85.5
2022-12-15T14:41:37.957Z,86
2022-12-15T14:46:44.052Z,87
2022-12-15T14:51:50.134Z,87.5
2022-12-15T14:56:56.261Z,88
2022-12-15T15:02:02.163Z,88.5
2022-12-15T15:07:08.357Z,89.5
2022-12-15T15:12:14.396Z,90
2022-12-15T15:17:20.464Z,91
2022-12-15T15:22:26.568Z,91.5
2022-12-15T15:27:31.683Z,91
2022-12-15T15:32:37.818Z,91
2022-12-15T15:37:43.869Z,92.5
2022-12-15T15:42:50.109Z,93
2022-12-15T15:47:56.081Z,94.5
2022-12-15T15:53:02.188Z,95
2022-12-15T15:58:08.290Z,95.5
2022-12-15T16:03:14.393Z,97.5
2022-12-15T16:08:20.552Z,97
2022-12-15T16:13:26.593Z,97
2022-12-15T16:23:38.820Z,98
2022-12-15T16:28:45.112Z,99
2022-12-15T16:33:50.033Z,99.5
2022-12-15T16:38:56.217Z,98
2022-12-15T16:49:08.350Z,96
2022-12-15T16:54:14.452Z,95.5
2022-12-15T16:59:20.571Z,94.5
2022-12-15T17:04:26.778Z,96.5
2022-12-15T17:09:32.808Z,96.5
2022-12-15T17:14:38.895Z,96
2022-12-15T17:19:44.976Z,96.5
2022-12-15T17:24:51.161Z,96
2022-12-15T17:29:57.210Z,96
2022-12-15T17:35:03.414Z,97.5
2022-12-15T17:40:08.446Z,97.5
2022-12-15T17:45:14.517Z,98
2022-12-15T17:50:20.629Z,99
2022-12-15T17:55:26.711Z,99
2022-12-15T18:00:32.814Z,98
2022-12-15T18:05:38.916Z,98.5
2022-12-15T18:10:44.048Z,99.5
2022-12-15T18:15:50.159Z,99
2022-12-15T18:20:56.259Z,99
2022-12-15T18:26:02.345Z,98.5
2022-12-15T18:31:08.532Z,98.5
2022-12-15T18:36:14.567Z,98.5
2022-12-15T18:41:20.651Z,98.5
2022-12-15T18:46:26.769Z,99
2022-12-15T18:51:32.877Z,99.5
2022-12-15T18:56:38.976Z,99.5
2022-12-15T19:01:45.067Z,99.5
2022-12-15T19:06:51.221Z,99.5
2022-12-15T19:11:57.269Z,99.5
2022-12-15T19:17:02.532Z,99.5
2022-12-15T19:22:08.500Z,99.5
2022-12-15T19:27:14.604Z,99.5
2022-12-15T19:32:20.709Z,99.5
2022-12-15T19:37:26.801Z,99.5
2022-12-15T19:42:32.896Z,99.5
2022-12-15T19:47:39.102Z,99.5
2022-12-15T19:52:45.119Z,99.5
2022-12-15T19:57:51.265Z,99.5
2022-12-15T20:02:57.458Z,99.5
2022-12-15T20:08:03.469Z,99.5
2022-12-15T20:13:09.644Z,99.5
2022-12-15T20:18:15.683Z,99.5
2022-12-15T20:23:20.872Z,99.5
2022-12-15T20:28:26.845Z,99.5
2022-12-15T20:33:33.093Z,99.5
2022-12-15T20:38:39.070Z,99.5
2022-12-15T20:43:45.238Z,99.5
2022-12-15T20:48:51.266Z,99.5
2022-12-15T20:53:57.395Z,99.5
2022-12-15T20:59:03.621Z,99.5
2022-12-15T21:04:09.602Z,99
2022-12-15T21:09:15.729Z,99
2022-12-15T21:14:21.880Z,98.5
2022-12-15T21:19:28.043Z,98.5
2022-12-15T21:24:34.169Z,98.5
2022-12-15T21:29:39.178Z,98.5
2022-12-15T21:34:45.372Z,98
2022-12-15T21:39:51.506Z,98.5
2022-12-15T21:44:57.407Z,98.5
2022-12-15T21:50:03.695Z,99
2022-12-15T21:55:09.798Z,99
2022-12-15T22:00:15.913Z,99
2022-12-15T22:05:21.956Z,98
2022-12-15T22:10:28.070Z,98.5
2022-12-15T22:15:34.207Z,98
2022-12-15T22:20:40.208Z,97.5
2022-12-15T22:25:46.418Z,99
2022-12-15T22:30:52.558Z,98.5
2022-12-15T22:35:57.486Z,99
2022-12-15T22:41:03.774Z,99
2022-12-15T22:46:09.918Z,98.5
2022-12-15T22:51:15.977Z,98.5
2022-12-15T22:56:22.070Z,99
2022-12-15T23:01:27.998Z,99
2022-12-15T23:06:34.284Z,98.5
2022-12-15T23:11:40.383Z,98.5
2022-12-15T23:16:46.458Z,98.5
2022-12-15T23:21:52.642Z,98.5
2022-12-15T23:26:58.654Z,99
2022-12-15T23:32:04.879Z,98.5
2022-12-15T23:37:10.920Z,97.5
2022-12-15T23:42:16.025Z,98
2022-12-15T23:47:22.105Z,98
2022-12-15T23:52:28.218Z,97.5
2022-12-15T23:57:34.324Z,99.5
